sensor_id;sensor_type;location;lat;lon;timestamp;temperature;humidity
32877;DHT22;19226;51.600;8.034;2023-05-10T00:00:18;15.80;99.90
32877;DHT22;19226;51.600;8.034;2023-05-10T00:03:02;15.80;99.90
32877;DHT22;19226;51.600;8.034;2023-05-10T00:05:49;15.80;99.90
32877;DHT22;19226;51.600;8.034;2023-05-10T00:08:33;15.80;99.90
32877;DHT22;19226;51.600;8.034;2023-05-10T00:11:18;15.70;99.90
32877;DHT22;19226;51.600;8.034;2023-05-10T00:14:02;15.70;99.90
32877;DHT22;19226;51.600;8.034;2023-05-10T00:16:47;15.60;99.90
32877;DHT22;19226;51.600;8.034;2023-05-10T00:19:31;15.60;99.90
32877;DHT22;19226;51.600;8.034;2023-05-10T00:22:16;15.50;99.90
32877;DHT22;19226;51.600;8.034;2023-05-10T00:25:00;15.40;99.90
32877;DHT22;19226;51.600;8.034;2023-05-10T00:27:45;15.40;99.90
32877;DHT22;19226;51.600;8.034;2023-05-10T00:30:29;15.30;99.90
32877;DHT22;19226;51.600;8.034;2023-05-10T00:33:14;15.20;99.90
32877;DHT22;19226;51.600;8.034;2023-05-10T00:35:58;15.20;99.90
32877;DHT22;19226;51.600;8.034;2023-05-10T00:38:43;15.10;99.90
32877;DHT22;19226;51.600;8.034;2023-05-10T00:41:27;15.10;99.90
32877;DHT22;19226;51.600;8.034;2023-05-10T00:44:12;15.00;99.90
32877;DHT22;19226;51.600;8.034;2023-05-10T00:46:58;15.10;99.90
32877;DHT22;19226;51.600;8.034;2023-05-10T00:49:43;15.00;99.90
32877;DHT22;19226;51.600;8.034;2023-05-10T00:52:29;15.00;99.90
32877;DHT22;19226;51.600;8.034;2023-05-10T00:55:15;15.00;99.90
32877;DHT22;19226;51.600;8.034;2023-05-10T00:58:00;14.90;99.90
32877;DHT22;19226;51.600;8.034;2023-05-10T01:00:46;14.90;99.90
32877;DHT22;19226;51.600;8.034;2023-05-10T01:03:32;14.90;99.90
32877;DHT22;19226;51.600;8.034;2023-05-10T01:06:16;14.80;99.90
32877;DHT22;19226;51.600;8.034;2023-05-10T01:09:01;14.80;99.90
32877;DHT22;19226;51.600;8.034;2023-05-10T01:11:46;14.80;99.90
32877;DHT22;19226;51.600;8.034;2023-05-10T01:14:31;14.70;99.90
32877;DHT22;19226;51.600;8.034;2023-05-10T01:17:16;14.70;99.90
32877;DHT22;19226;51.600;8.034;2023-05-10T01:20:02;14.70;99.90
32877;DHT22;19226;51.600;8.034;2023-05-10T01:26:14;14.70;99.90
32877;DHT22;19226;51.600;8.034;2023-05-10T01:41:33;14.50;99.90
32877;DHT22;19226;51.600;8.034;2023-05-10T01:44:35;14.60;99.90
32877;DHT22;19226;51.600;8.034;2023-05-10T01:47:28;14.50;99.90
32877;DHT22;19226;51.600;8.034;2023-05-10T01:50:28;14.50;99.90
32877;DHT22;19226;51.600;8.034;2023-05-10T01:53:18;14.50;99.90
32877;DHT22;19226;51.600;8.034;2023-05-10T01:56:03;14.40;99.90
32877;DHT22;19226;51.600;8.034;2023-05-10T01:58:50;14.40;99.90
32877;DHT22;19226;51.600;8.034;2023-05-10T02:01:36;14.40;99.90
32877;DHT22;19226;51.600;8.034;2023-05-10T02:04:23;14.40;99.90
32877;DHT22;19226;51.600;8.034;2023-05-10T02:07:08;14.40;99.90
32877;DHT22;19226;51.600;8.034;2023-05-10T02:09:55;14.40;99.90
32877;DHT22;19226;51.600;8.034;2023-05-10T02:12:43;14.40;99.90
32877;DHT22;19226;51.600;8.034;2023-05-10T02:15:30;14.40;99.90
32877;DHT22;19226;51.600;8.034;2023-05-10T02:18:16;14.40;99.90
32877;DHT22;19226;51.600;8.034;2023-05-10T02:21:01;14.40;99.90
32877;DHT22;19226;51.600;8.034;2023-05-10T02:23:48;14.40;99.90
32877;DHT22;19226;51.600;8.034;2023-05-10T02:26:35;14.40;99.90
32877;DHT22;19226;51.600;8.034;2023-05-10T02:29:20;14.40;99.90
32877;DHT22;19226;51.600;8.034;2023-05-10T02:32:08;14.40;99.90
32877;DHT22;19226;51.600;8.034;2023-05-10T02:34:54;14.40;99.90
32877;DHT22;19226;51.600;8.034;2023-05-10T02:37:39;14.30;99.90
32877;DHT22;19226;51.600;8.034;2023-05-10T02:40:25;14.30;99.90
32877;DHT22;19226;51.600;8.034;2023-05-10T02:43:13;14.30;99.90
32877;DHT22;19226;51.600;8.034;2023-05-10T02:45:58;14.30;99.90
32877;DHT22;19226;51.600;8.034;2023-05-10T02:48:43;14.30;99.90
32877;DHT22;19226;51.600;8.034;2023-05-10T02:51:31;14.30;99.90
32877;DHT22;19226;51.600;8.034;2023-05-10T02:54:20;14.30;99.90
32877;DHT22;19226;51.600;8.034;2023-05-10T02:57:06;14.30;99.90
32877;DHT22;19226;51.600;8.034;2023-05-10T02:59:51;14.30;99.90
32877;DHT22;19226;51.600;8.034;2023-05-10T03:02:35;14.30;99.90
32877;DHT22;19226;51.600;8.034;2023-05-10T03:05:20;14.30;99.90
32877;DHT22;19226;51.600;8.034;2023-05-10T03:08:05;14.30;99.90
32877;DHT22;19226;51.600;8.034;2023-05-10T03:11:32;14.30;99.90
32877;DHT22;19226;51.600;8.034;2023-05-10T03:14:45;14.30;99.90
32877;DHT22;19226;51.600;8.034;2023-05-10T03:17:47;14.30;99.90
32877;DHT22;19226;51.600;8.034;2023-05-10T03:20:42;14.30;99.90
32877;DHT22;19226;51.600;8.034;2023-05-10T03:23:44;14.20;99.90
32877;DHT22;19226;51.600;8.034;2023-05-10T03:26:30;14.20;99.90
32877;DHT22;19226;51.600;8.034;2023-05-10T03:29:25;14.10;99.90
32877;DHT22;19226;51.600;8.034;2023-05-10T03:32:10;14.10;99.90
32877;DHT22;19226;51.600;8.034;2023-05-10T03:34:55;14.10;99.90
32877;DHT22;19226;51.600;8.034;2023-05-10T03:37:39;14.10;99.90
32877;DHT22;19226;51.600;8.034;2023-05-10T03:40:25;14.10;99.90
32877;DHT22;19226;51.600;8.034;2023-05-10T03:43:10;14.00;99.90
32877;DHT22;19226;51.600;8.034;2023-05-10T03:45:54;14.00;99.90
32877;DHT22;19226;51.600;8.034;2023-05-10T03:48:39;14.00;99.90
32877;DHT22;19226;51.600;8.034;2023-05-10T03:51:23;14.00;99.90
32877;DHT22;19226;51.600;8.034;2023-05-10T03:54:11;14.00;99.90
32877;DHT22;19226;51.600;8.034;2023-05-10T03:56:56;14.00;99.90
32877;DHT22;19226;51.600;8.034;2023-05-10T03:59:41;14.00;99.90
32877;DHT22;19226;51.600;8.034;2023-05-10T04:02:26;14.00;99.90
32877;DHT22;19226;51.600;8.034;2023-05-10T04:05:11;14.00;99.90
32877;DHT22;19226;51.600;8.034;2023-05-10T04:07:55;13.90;99.90
32877;DHT22;19226;51.600;8.034;2023-05-10T04:10:40;14.00;99.90
32877;DHT22;19226;51.600;8.034;2023-05-10T04:13:24;14.00;99.90
32877;DHT22;19226;51.600;8.034;2023-05-10T04:16:09;14.00;99.90
32877;DHT22;19226;51.600;8.034;2023-05-10T04:18:53;14.00;99.90
32877;DHT22;19226;51.600;8.034;2023-05-10T04:21:38;14.00;99.90
32877;DHT22;19226;51.600;8.034;2023-05-10T04:24:22;14.00;99.90
32877;DHT22;19226;51.600;8.034;2023-05-10T04:27:07;14.00;99.90
32877;DHT22;19226;51.600;8.034;2023-05-10T04:29:51;14.00;99.90
32877;DHT22;19226;51.600;8.034;2023-05-10T04:32:36;14.00;99.90
32877;DHT22;19226;51.600;8.034;2023-05-10T04:35:20;13.90;99.90
32877;DHT22;19226;51.600;8.034;2023-05-10T04:38:05;13.90;99.90
32877;DHT22;19226;51.600;8.034;2023-05-10T04:40:49;13.90;99.90
32877;DHT22;19226;51.600;8.034;2023-05-10T04:43:34;13.90;99.90
32877;DHT22;19226;51.600;8.034;2023-05-10T04:46:19;13.90;99.90
32877;DHT22;19226;51.600;8.034;2023-05-10T04:49:04;13.90;99.90
32877;DHT22;19226;51.600;8.034;2023-05-10T04:51:48;13.90;99.90
32877;DHT22;19226;51.600;8.034;2023-05-10T04:54:33;13.90;99.90
32877;DHT22;19226;51.600;8.034;2023-05-10T04:57:17;13.90;99.90
32877;DHT22;19226;51.600;8.034;2023-05-10T05:00:02;14.00;99.90
32877;DHT22;19226;51.600;8.034;2023-05-10T05:02:46;13.90;99.90
32877;DHT22;19226;51.600;8.034;2023-05-10T05:05:31;13.90;99.90
32877;DHT22;19226;51.600;8.034;2023-05-10T05:08:15;13.90;99.90
32877;DHT22;19226;51.600;8.034;2023-05-10T05:11:00;13.90;99.90
32877;DHT22;19226;51.600;8.034;2023-05-10T05:13:45;14.00;99.90
32877;DHT22;19226;51.600;8.034;2023-05-10T05:16:30;13.90;99.90
32877;DHT22;19226;51.600;8.034;2023-05-10T05:19:15;14.00;99.90
32877;DHT22;19226;51.600;8.034;2023-05-10T05:22:00;14.00;99.90
32877;DHT22;19226;51.600;8.034;2023-05-10T05:24:45;14.00;99.90
32877;DHT22;19226;51.600;8.034;2023-05-10T05:27:29;14.10;99.90
32877;DHT22;19226;51.600;8.034;2023-05-10T05:30:14;14.10;99.90
32877;DHT22;19226;51.600;8.034;2023-05-10T05:32:58;14.10;99.90
32877;DHT22;19226;51.600;8.034;2023-05-10T05:35:43;14.10;99.90
32877;DHT22;19226;51.600;8.034;2023-05-10T05:38:31;14.10;99.90
32877;DHT22;19226;51.600;8.034;2023-05-10T05:41:16;14.10;99.90
32877;DHT22;19226;51.600;8.034;2023-05-10T05:44:00;14.10;99.90
32877;DHT22;19226;51.600;8.034;2023-05-10T05:46:45;14.20;99.90
32877;DHT22;19226;51.600;8.034;2023-05-10T05:49:30;14.20;99.90
32877;DHT22;19226;51.600;8.034;2023-05-10T05:52:14;14.20;99.90
32877;DHT22;19226;51.600;8.034;2023-05-10T05:54:59;14.30;99.90
32877;DHT22;19226;51.600;8.034;2023-05-10T05:57:44;14.30;99.90
32877;DHT22;19226;51.600;8.034;2023-05-10T06:00:29;14.30;99.90
32877;DHT22;19226;51.600;8.034;2023-05-10T06:03:14;14.40;99.90
32877;DHT22;19226;51.600;8.034;2023-05-10T06:05:58;14.40;99.90
32877;DHT22;19226;51.600;8.034;2023-05-10T06:08:43;14.40;99.90
32877;DHT22;19226;51.600;8.034;2023-05-10T06:11:27;14.40;99.90
32877;DHT22;19226;51.600;8.034;2023-05-10T06:14:12;14.40;99.90
32877;DHT22;19226;51.600;8.034;2023-05-10T06:16:56;14.50;99.90
32877;DHT22;19226;51.600;8.034;2023-05-10T06:19:41;14.50;99.90
32877;DHT22;19226;51.600;8.034;2023-05-10T06:22:25;14.50;99.90
32877;DHT22;19226;51.600;8.034;2023-05-10T06:25:10;14.50;99.90
32877;DHT22;19226;51.600;8.034;2023-05-10T06:27:54;14.50;99.90
32877;DHT22;19226;51.600;8.034;2023-05-10T06:30:41;14.50;99.90
32877;DHT22;19226;51.600;8.034;2023-05-10T06:33:26;14.50;99.90
32877;DHT22;19226;51.600;8.034;2023-05-10T06:36:10;14.50;99.90
32877;DHT22;19226;51.600;8.034;2023-05-10T06:38:55;14.60;99.90
32877;DHT22;19226;51.600;8.034;2023-05-10T06:41:39;14.60;99.90
32877;DHT22;19226;51.600;8.034;2023-05-10T06:44:24;14.50;99.90
32877;DHT22;19226;51.600;8.034;2023-05-10T06:47:09;14.50;99.90
32877;DHT22;19226;51.600;8.034;2023-05-10T06:49:53;14.60;99.90
32877;DHT22;19226;51.600;8.034;2023-05-10T06:52:38;14.60;99.90
32877;DHT22;19226;51.600;8.034;2023-05-10T06:55:22;14.70;99.90
32877;DHT22;19226;51.600;8.034;2023-05-10T06:58:07;14.70;99.90
32877;DHT22;19226;51.600;8.034;2023-05-10T07:00:51;14.70;99.90
32877;DHT22;19226;51.600;8.034;2023-05-10T07:03:36;14.70;99.90
32877;DHT22;19226;51.600;8.034;2023-05-10T07:06:20;14.80;99.90
32877;DHT22;19226;51.600;8.034;2023-05-10T07:09:05;14.70;99.90
32877;DHT22;19226;51.600;8.034;2023-05-10T07:11:49;14.70;99.90
32877;DHT22;19226;51.600;8.034;2023-05-10T07:14:34;14.80;99.90
32877;DHT22;19226;51.600;8.034;2023-05-10T07:17:19;14.80;99.90
32877;DHT22;19226;51.600;8.034;2023-05-10T07:20:03;14.80;99.90
32877;DHT22;19226;51.600;8.034;2023-05-10T07:22:48;14.80;99.90
32877;DHT22;19226;51.600;8.034;2023-05-10T07:25:32;14.80;99.90
32877;DHT22;19226;51.600;8.034;2023-05-10T07:28:17;14.80;99.90
32877;DHT22;19226;51.600;8.034;2023-05-10T07:31:01;14.90;99.90
32877;DHT22;19226;51.600;8.034;2023-05-10T07:33:46;14.90;99.90
32877;DHT22;19226;51.600;8.034;2023-05-10T07:36:31;14.90;99.90
32877;DHT22;19226;51.600;8.034;2023-05-10T07:39:16;14.90;99.90
32877;DHT22;19226;51.600;8.034;2023-05-10T07:42:01;15.00;99.90
32877;DHT22;19226;51.600;8.034;2023-05-10T07:44:46;15.00;99.90
32877;DHT22;19226;51.600;8.034;2023-05-10T07:47:31;15.00;99.90
32877;DHT22;19226;51.600;8.034;2023-05-10T07:50:15;15.00;99.90
32877;DHT22;19226;51.600;8.034;2023-05-10T07:53:00;15.10;99.90
32877;DHT22;19226;51.600;8.034;2023-05-10T07:55:50;15.20;99.90
32877;DHT22;19226;51.600;8.034;2023-05-10T07:58:34;15.20;99.90
32877;DHT22;19226;51.600;8.034;2023-05-10T08:01:19;15.30;99.90
32877;DHT22;19226;51.600;8.034;2023-05-10T08:04:04;15.40;99.90
32877;DHT22;19226;51.600;8.034;2023-05-10T08:06:48;15.40;99.90
32877;DHT22;19226;51.600;8.034;2023-05-10T08:09:33;15.50;99.90
32877;DHT22;19226;51.600;8.034;2023-05-10T08:12:17;15.60;99.90
32877;DHT22;19226;51.600;8.034;2023-05-10T08:15:01;15.70;99.90
32877;DHT22;19226;51.600;8.034;2023-05-10T08:17:46;15.90;99.90
32877;DHT22;19226;51.600;8.034;2023-05-10T08:20:30;16.00;99.90
32877;DHT22;19226;51.600;8.034;2023-05-10T08:23:15;16.20;99.90
32877;DHT22;19226;51.600;8.034;2023-05-10T08:26:00;16.30;99.90
32877;DHT22;19226;51.600;8.034;2023-05-10T08:28:44;16.30;99.90
32877;DHT22;19226;51.600;8.034;2023-05-10T08:31:29;16.40;99.90
32877;DHT22;19226;51.600;8.034;2023-05-10T08:34:13;16.50;99.90
32877;DHT22;19226;51.600;8.034;2023-05-10T08:36:58;16.60;99.90
32877;DHT22;19226;51.600;8.034;2023-05-10T08:39:42;16.70;99.90
32877;DHT22;19226;51.600;8.034;2023-05-10T08:42:29;16.90;99.90
32877;DHT22;19226;51.600;8.034;2023-05-10T08:45:15;17.00;99.90
32877;DHT22;19226;51.600;8.034;2023-05-10T08:48:02;17.20;99.90
32877;DHT22;19226;51.600;8.034;2023-05-10T08:50:47;17.40;99.90
32877;DHT22;19226;51.600;8.034;2023-05-10T08:53:33;17.50;99.90
32877;DHT22;19226;51.600;8.034;2023-05-10T08:56:19;17.60;99.90
32877;DHT22;19226;51.600;8.034;2023-05-10T08:59:04;17.70;99.90
32877;DHT22;19226;51.600;8.034;2023-05-10T09:01:50;17.70;99.90
32877;DHT22;19226;51.600;8.034;2023-05-10T09:04:35;17.70;99.90
32877;DHT22;19226;51.600;8.034;2023-05-10T09:07:20;17.70;99.90
32877;DHT22;19226;51.600;8.034;2023-05-10T09:10:05;17.80;99.90
32877;DHT22;19226;51.600;8.034;2023-05-10T09:12:50;18.00;99.90
32877;DHT22;19226;51.600;8.034;2023-05-10T09:15:34;18.20;99.90
32877;DHT22;19226;51.600;8.034;2023-05-10T09:18:19;18.20;99.90
32877;DHT22;19226;51.600;8.034;2023-05-10T09:21:03;18.40;99.90
32877;DHT22;19226;51.600;8.034;2023-05-10T09:23:48;18.60;99.90
32877;DHT22;19226;51.600;8.034;2023-05-10T09:26:34;18.80;99.90
32877;DHT22;19226;51.600;8.034;2023-05-10T09:29:19;18.90;99.90
32877;DHT22;19226;51.600;8.034;2023-05-10T09:32:04;19.00;99.90
32877;DHT22;19226;51.600;8.034;2023-05-10T09:34:49;19.00;99.90
32877;DHT22;19226;51.600;8.034;2023-05-10T09:37:33;19.20;99.90
32877;DHT22;19226;51.600;8.034;2023-05-10T09:40:20;19.30;99.90
32877;DHT22;19226;51.600;8.034;2023-05-10T09:43:08;19.30;99.90
32877;DHT22;19226;51.600;8.034;2023-05-10T09:45:52;19.40;99.90
32877;DHT22;19226;51.600;8.034;2023-05-10T09:48:42;19.60;99.90
32877;DHT22;19226;51.600;8.034;2023-05-10T09:51:27;19.60;99.90
32877;DHT22;19226;51.600;8.034;2023-05-10T09:54:16;19.70;99.90
32877;DHT22;19226;51.600;8.034;2023-05-10T09:57:01;19.80;99.90
32877;DHT22;19226;51.600;8.034;2023-05-10T09:59:47;19.90;99.90
32877;DHT22;19226;51.600;8.034;2023-05-10T10:02:31;19.90;99.90
32877;DHT22;19226;51.600;8.034;2023-05-10T10:05:16;20.00;99.90
32877;DHT22;19226;51.600;8.034;2023-05-10T10:08:02;20.20;99.90
32877;DHT22;19226;51.600;8.034;2023-05-10T10:10:47;20.30;99.90
32877;DHT22;19226;51.600;8.034;2023-05-10T10:13:32;20.30;99.90
32877;DHT22;19226;51.600;8.034;2023-05-10T10:16:16;20.50;99.90
32877;DHT22;19226;51.600;8.034;2023-05-10T10:19:01;20.60;99.90
32877;DHT22;19226;51.600;8.034;2023-05-10T10:21:50;20.80;99.90
32877;DHT22;19226;51.600;8.034;2023-05-10T10:24:34;20.80;99.90
32877;DHT22;19226;51.600;8.034;2023-05-10T10:27:26;20.70;99.90
32877;DHT22;19226;51.600;8.034;2023-05-10T10:34:34;20.20;99.90
32877;DHT22;19226;51.600;8.034;2023-05-10T10:36:47;20.10;99.90
32877;DHT22;19226;51.600;8.034;2023-05-10T10:39:32;19.90;99.90
32877;DHT22;19226;51.600;8.034;2023-05-10T10:42:46;19.80;99.90
32877;DHT22;19226;51.600;8.034;2023-05-10T10:45:31;19.90;99.90
32877;DHT22;19226;51.600;8.034;2023-05-10T10:48:23;20.10;99.90
32877;DHT22;19226;51.600;8.034;2023-05-10T10:51:08;20.20;99.90
32877;DHT22;19226;51.600;8.034;2023-05-10T10:53:54;20.30;99.90
32877;DHT22;19226;51.600;8.034;2023-05-10T10:56:38;20.40;99.90
32877;DHT22;19226;51.600;8.034;2023-05-10T10:59:29;20.50;99.90
32877;DHT22;19226;51.600;8.034;2023-05-10T11:02:54;20.70;99.90
32877;DHT22;19226;51.600;8.034;2023-05-10T11:05:47;20.90;99.90
32877;DHT22;19226;51.600;8.034;2023-05-10T11:08:33;21.10;99.90
32877;DHT22;19226;51.600;8.034;2023-05-10T11:11:18;21.10;99.90
32877;DHT22;19226;51.600;8.034;2023-05-10T11:14:04;21.10;99.90
32877;DHT22;19226;51.600;8.034;2023-05-10T11:16:50;21.20;99.90
32877;DHT22;19226;51.600;8.034;2023-05-10T11:19:34;21.10;99.90
32877;DHT22;19226;51.600;8.034;2023-05-10T11:22:18;21.20;99.90
32877;DHT22;19226;51.600;8.034;2023-05-10T11:25:03;21.10;99.90
32877;DHT22;19226;51.600;8.034;2023-05-10T11:27:50;20.90;99.90
32877;DHT22;19226;51.600;8.034;2023-05-10T11:30:35;20.90;99.90
32877;DHT22;19226;51.600;8.034;2023-05-10T11:33:20;20.90;99.90
32877;DHT22;19226;51.600;8.034;2023-05-10T11:36:04;21.00;99.90
32877;DHT22;19226;51.600;8.034;2023-05-10T11:38:49;21.10;99.90
32877;DHT22;19226;51.600;8.034;2023-05-10T11:41:33;21.20;99.90
32877;DHT22;19226;51.600;8.034;2023-05-10T11:44:18;21.40;99.90
32877;DHT22;19226;51.600;8.034;2023-05-10T11:47:02;21.70;99.90
32877;DHT22;19226;51.600;8.034;2023-05-10T11:49:48;21.80;99.90
32877;DHT22;19226;51.600;8.034;2023-05-10T11:52:36;21.90;99.90
32877;DHT22;19226;51.600;8.034;2023-05-10T11:55:22;22.00;99.90
32877;DHT22;19226;51.600;8.034;2023-05-10T11:58:08;22.00;99.90
32877;DHT22;19226;51.600;8.034;2023-05-10T12:00:52;22.10;99.90
32877;DHT22;19226;51.600;8.034;2023-05-10T12:03:37;22.10;99.90
32877;DHT22;19226;51.600;8.034;2023-05-10T12:06:22;22.20;99.90
32877;DHT22;19226;51.600;8.034;2023-05-10T12:09:07;22.30;99.90
32877;DHT22;19226;51.600;8.034;2023-05-10T12:11:55;22.40;99.90
32877;DHT22;19226;51.600;8.034;2023-05-10T12:14:40;22.40;99.90
32877;DHT22;19226;51.600;8.034;2023-05-10T12:17:28;22.50;99.90
32877;DHT22;19226;51.600;8.034;2023-05-10T12:20:23;22.50;99.90
32877;DHT22;19226;51.600;8.034;2023-05-10T12:23:09;22.60;99.90
32877;DHT22;19226;51.600;8.034;2023-05-10T12:26:02;22.50;99.90
32877;DHT22;19226;51.600;8.034;2023-05-10T12:28:47;22.00;99.90
32877;DHT22;19226;51.600;8.034;2023-05-10T12:31:32;21.70;99.90
32877;DHT22;19226;51.600;8.034;2023-05-10T12:34:29;21.50;99.90
32877;DHT22;19226;51.600;8.034;2023-05-10T12:37:14;21.50;99.90
32877;DHT22;19226;51.600;8.034;2023-05-10T12:39:59;21.50;99.90
32877;DHT22;19226;51.600;8.034;2023-05-10T12:42:43;21.60;99.90
32877;DHT22;19226;51.600;8.034;2023-05-10T12:45:30;21.60;99.90
32877;DHT22;19226;51.600;8.034;2023-05-10T12:48:16;21.40;99.90
32877;DHT22;19226;51.600;8.034;2023-05-10T12:51:01;21.20;99.90
32877;DHT22;19226;51.600;8.034;2023-05-10T12:53:46;21.20;99.90
32877;DHT22;19226;51.600;8.034;2023-05-10T12:56:32;21.20;99.90
32877;DHT22;19226;51.600;8.034;2023-05-10T12:59:16;21.20;99.90
32877;DHT22;19226;51.600;8.034;2023-05-10T13:02:01;21.20;99.90
32877;DHT22;19226;51.600;8.034;2023-05-10T13:04:45;21.30;99.90
32877;DHT22;19226;51.600;8.034;2023-05-10T13:07:30;21.30;99.90
32877;DHT22;19226;51.600;8.034;2023-05-10T13:10:16;21.30;99.90
32877;DHT22;19226;51.600;8.034;2023-05-10T13:13:01;21.30;99.90
32877;DHT22;19226;51.600;8.034;2023-05-10T13:15:45;21.40;99.90
32877;DHT22;19226;51.600;8.034;2023-05-10T13:18:30;21.40;99.90
32877;DHT22;19226;51.600;8.034;2023-05-10T13:21:14;21.60;99.90
32877;DHT22;19226;51.600;8.034;2023-05-10T13:23:59;21.60;99.90
32877;DHT22;19226;51.600;8.034;2023-05-10T13:26:44;21.60;99.90
32877;DHT22;19226;51.600;8.034;2023-05-10T13:29:28;21.60;99.90
32877;DHT22;19226;51.600;8.034;2023-05-10T13:32:13;21.60;99.90
32877;DHT22;19226;51.600;8.034;2023-05-10T13:34:58;21.60;99.90
32877;DHT22;19226;51.600;8.034;2023-05-10T13:37:43;21.80;99.90
32877;DHT22;19226;51.600;8.034;2023-05-10T13:40:27;21.80;99.90
32877;DHT22;19226;51.600;8.034;2023-05-10T13:43:12;21.80;99.90
32877;DHT22;19226;51.600;8.034;2023-05-10T13:45:56;22.00;99.90
32877;DHT22;19226;51.600;8.034;2023-05-10T13:48:41;22.10;99.90
32877;DHT22;19226;51.600;8.034;2023-05-10T13:51:26;22.20;99.90
32877;DHT22;19226;51.600;8.034;2023-05-10T13:54:10;22.30;99.90
32877;DHT22;19226;51.600;8.034;2023-05-10T13:56:55;22.40;99.90
32877;DHT22;19226;51.600;8.034;2023-05-10T13:59:39;22.40;99.90
32877;DHT22;19226;51.600;8.034;2023-05-10T14:02:24;22.40;99.90
32877;DHT22;19226;51.600;8.034;2023-05-10T14:05:09;22.30;99.90
32877;DHT22;19226;51.600;8.034;2023-05-10T14:07:54;22.30;99.90
32877;DHT22;19226;51.600;8.034;2023-05-10T14:10:39;22.30;99.90
32877;DHT22;19226;51.600;8.034;2023-05-10T14:13:24;22.20;99.90
32877;DHT22;19226;51.600;8.034;2023-05-10T14:16:08;22.30;99.90
32877;DHT22;19226;51.600;8.034;2023-05-10T14:18:53;22.40;99.90
32877;DHT22;19226;51.600;8.034;2023-05-10T14:21:37;22.40;99.90
32877;DHT22;19226;51.600;8.034;2023-05-10T14:24:22;22.20;99.90
32877;DHT22;19226;51.600;8.034;2023-05-10T14:27:06;22.20;99.90
32877;DHT22;19226;51.600;8.034;2023-05-10T14:29:51;22.30;99.90
32877;DHT22;19226;51.600;8.034;2023-05-10T14:32:37;22.30;99.90
32877;DHT22;19226;51.600;8.034;2023-05-10T14:35:22;22.30;99.90
32877;DHT22;19226;51.600;8.034;2023-05-10T14:38:06;22.50;99.90
32877;DHT22;19226;51.600;8.034;2023-05-10T14:40:50;22.30;99.90
32877;DHT22;19226;51.600;8.034;2023-05-10T14:43:35;22.30;99.90
32877;DHT22;19226;51.600;8.034;2023-05-10T14:46:20;22.10;99.90
32877;DHT22;19226;51.600;8.034;2023-05-10T14:49:06;22.10;99.90
32877;DHT22;19226;51.600;8.034;2023-05-10T14:51:50;22.10;99.90
32877;DHT22;19226;51.600;8.034;2023-05-10T14:54:35;22.00;99.90
32877;DHT22;19226;51.600;8.034;2023-05-10T14:57:19;22.10;99.90
32877;DHT22;19226;51.600;8.034;2023-05-10T15:00:04;22.10;99.90
32877;DHT22;19226;51.600;8.034;2023-05-10T15:02:49;22.10;99.90
32877;DHT22;19226;51.600;8.034;2023-05-10T15:05:34;22.10;99.90
32877;DHT22;19226;51.600;8.034;2023-05-10T15:08:19;22.10;99.90
32877;DHT22;19226;51.600;8.034;2023-05-10T15:11:03;22.10;99.90
32877;DHT22;19226;51.600;8.034;2023-05-10T15:13:48;22.20;99.90
32877;DHT22;19226;51.600;8.034;2023-05-10T15:16:32;22.30;99.90
32877;DHT22;19226;51.600;8.034;2023-05-10T15:19:17;22.10;99.90
32877;DHT22;19226;51.600;8.034;2023-05-10T15:22:02;22.00;99.90
32877;DHT22;19226;51.600;8.034;2023-05-10T15:24:46;22.00;99.90
32877;DHT22;19226;51.600;8.034;2023-05-10T15:27:31;22.00;99.90
32877;DHT22;19226;51.600;8.034;2023-05-10T15:30:16;22.00;99.90
32877;DHT22;19226;51.600;8.034;2023-05-10T15:33:00;22.10;99.90
32877;DHT22;19226;51.600;8.034;2023-05-10T15:35:46;21.90;99.90
32877;DHT22;19226;51.600;8.034;2023-05-10T15:38:31;22.00;99.90
32877;DHT22;19226;51.600;8.034;2023-05-10T15:41:15;21.90;99.90
32877;DHT22;19226;51.600;8.034;2023-05-10T15:44:00;21.70;99.90
32877;DHT22;19226;51.600;8.034;2023-05-10T15:46:45;21.60;99.90
32877;DHT22;19226;51.600;8.034;2023-05-10T15:49:29;21.50;99.90
32877;DHT22;19226;51.600;8.034;2023-05-10T15:52:14;21.50;99.90
32877;DHT22;19226;51.600;8.034;2023-05-10T15:54:58;21.40;99.90
32877;DHT22;19226;51.600;8.034;2023-05-10T15:57:43;21.50;99.90
32877;DHT22;19226;51.600;8.034;2023-05-10T16:00:28;21.60;99.90
32877;DHT22;19226;51.600;8.034;2023-05-10T16:03:12;21.60;99.90
32877;DHT22;19226;51.600;8.034;2023-05-10T16:05:57;21.70;99.90
32877;DHT22;19226;51.600;8.034;2023-05-10T16:08:41;21.70;99.90
32877;DHT22;19226;51.600;8.034;2023-05-10T16:11:27;21.80;99.90
32877;DHT22;19226;51.600;8.034;2023-05-10T16:14:12;21.60;99.90
32877;DHT22;19226;51.600;8.034;2023-05-10T16:16:56;21.70;99.90
32877;DHT22;19226;51.600;8.034;2023-05-10T16:19:41;21.70;99.90
32877;DHT22;19226;51.600;8.034;2023-05-10T16:22:25;21.70;99.90
32877;DHT22;19226;51.600;8.034;2023-05-10T16:25:12;21.90;99.90
32877;DHT22;19226;51.600;8.034;2023-05-10T16:27:57;22.10;99.90
32877;DHT22;19226;51.600;8.034;2023-05-10T16:30:41;22.10;99.90
32877;DHT22;19226;51.600;8.034;2023-05-10T16:33:26;22.10;99.90
32877;DHT22;19226;51.600;8.034;2023-05-10T16:36:11;22.10;99.90
32877;DHT22;19226;51.600;8.034;2023-05-10T16:38:55;22.10;99.90
32877;DHT22;19226;51.600;8.034;2023-05-10T16:41:40;22.00;99.90
32877;DHT22;19226;51.600;8.034;2023-05-10T16:44:24;22.00;99.90
32877;DHT22;19226;51.600;8.034;2023-05-10T16:47:09;22.00;99.90
32877;DHT22;19226;51.600;8.034;2023-05-10T16:49:53;21.90;99.90
32877;DHT22;19226;51.600;8.034;2023-05-10T16:52:38;22.00;99.90
32877;DHT22;19226;51.600;8.034;2023-05-10T16:55:22;22.00;99.90
32877;DHT22;19226;51.600;8.034;2023-05-10T16:58:07;21.90;99.90
32877;DHT22;19226;51.600;8.034;2023-05-10T17:00:51;21.90;99.90
32877;DHT22;19226;51.600;8.034;2023-05-10T17:03:36;21.80;99.90
32877;DHT22;19226;51.600;8.034;2023-05-10T17:06:21;21.80;99.90
32877;DHT22;19226;51.600;8.034;2023-05-10T17:09:05;21.70;99.90
32877;DHT22;19226;51.600;8.034;2023-05-10T17:11:50;21.70;99.90
32877;DHT22;19226;51.600;8.034;2023-05-10T17:14:38;21.70;99.90
32877;DHT22;19226;51.600;8.034;2023-05-10T17:17:23;21.60;99.90
32877;DHT22;19226;51.600;8.034;2023-05-10T17:20:08;21.50;99.90
32877;DHT22;19226;51.600;8.034;2023-05-10T17:22:53;21.20;99.90
32877;DHT22;19226;51.600;8.034;2023-05-10T17:25:37;21.20;99.90
32877;DHT22;19226;51.600;8.034;2023-05-10T17:28:22;21.20;99.90
32877;DHT22;19226;51.600;8.034;2023-05-10T17:31:06;21.10;99.90
32877;DHT22;19226;51.600;8.034;2023-05-10T17:33:51;21.20;99.90
32877;DHT22;19226;51.600;8.034;2023-05-10T17:36:36;21.30;99.90
32877;DHT22;19226;51.600;8.034;2023-05-10T17:39:21;21.20;99.90
32877;DHT22;19226;51.600;8.034;2023-05-10T17:42:05;21.20;99.90
32877;DHT22;19226;51.600;8.034;2023-05-10T17:44:50;21.20;99.90